Wednesday, April 01, 2015
05:52 UTC
  |  Log In   |  Register Free
Airport Search:

Akron-Canton Regional Airport
(KCAK)

FAA data valid effective March 05, 2015 - April 30, 2015 (unless otherwise noted).

 
 
 
 
 
 
 
 
 
 
 
 
 
 

Current Aviation Weather for Akron-Canton Regional Airport (KCAK)

The most recent METAR observation for KCAK was updated at: 0508
METAR Summary (Translated METAR)
KCAK
010451Z 00000KT 9SM CLR M03/M05 A3002 RMK AO2 SLP172 T10281050 401441028
KAKR
010454Z AUTO 00000KT 10SM CLR 00/M03 A3001 RMK AO2 SLP167 T00001033 401441022
(7.4 nm NW from KCAK)
KPOV
010456Z AUTO 23003KT 10SM M02/ A3000 RMK AO2 T1019
(19.7 nm NE from KCAK)
TAF Summary (Translated TAF)
KCAK
311737Z 3118/0118 34012KT P6SM OVC035 TEMPO 3119/3122 BKN015 FM312300 32006KT P6SM BKN050 FM010600 20004KT P6SM SCT250
  Airport Weather Conditions for KCAK

 Current Weather at CAK
27° F
Fair
North winds at 0.0 mph
CAK NOAA Radar

Pressure: 30.02 in
Humidity: 85%
Wind: Calm
Dew Point: 23.0°F
Visibility: 9.00 mi


Airport Weather Forecast for KCAK

Translated METAR and TAF for KCAK
Translated METAR for KCAK (0551 UTC 01 April 2015)
found at http://aviationweather.gov/adds/metars/
 
METAR text: KCAK 010451Z 00000KT 9SM CLR M03/M05 A3002 RMK AO2 SLP172 T10281050 401441028
Conditions at: KCAK (AKRON , OH, US) observed 0451 UTC 01 April 2015
Temperature: -2.8°C (27°F)
Dewpoint: -5.0°C (23°F) [RH = 85%]
Pressure (altimeter): 30.02 inches Hg (1016.7 mb)
[Sea-level pressure: 1017.2 mb]
Winds: calm
Visibility: 9 miles (14 km)
Ceiling: at least 12,000 feet AGL
Clouds: sky clear below 12,000 feet AGL
Weather: no significant weather observed at this time
Translated TAF for KCAK
Forecast for: KCAK (AKRON , OH, US)
TAF Text: KCAK 010534Z 0106/0206 23003KT P6SM SCT250
Forecast period: 0600 to 1500 UTC 01 April 2015
Forecast type: FROM: standard forecast or significant change
Winds: from the SW (230 degrees) at 3 MPH (3 knots; 1.6 m/s)
Visibility: 6 or more miles (10+ km)
Clouds: scattered clouds at 25000 feet AGL
Weather: no significant weather forecast for this period
TAF Text: FM011500 24006KT P6SM BKN050
Forecast period: 1500 to 2300 UTC 01 April 2015
Forecast type: FROM: standard forecast or significant change
Winds: from the WSW (240 degrees) at 7 MPH (6 knots; 3.1 m/s)
Visibility: 6 or more miles (10+ km)
Ceiling: 5000 feet AGL
Clouds: broken clouds at 5000 feet AGL
Weather: no significant weather forecast for this period
TAF Text: FM012300 22007KT P6SM BKN250
Forecast period: 2300 UTC 01 April 2015 to 0600 UTC 02 April 2015
Forecast type: FROM: standard forecast or significant change
Winds: from the SW (220 degrees) at 8 MPH (7 knots; 3.6 m/s)
Visibility: 6 or more miles (10+ km)
Ceiling: 25000 feet AGL
Clouds: broken clouds at 25000 feet AGL
Weather: no significant weather forecast for this period

Find All Airport Services Find A Hotel Find A Rental Car Find A Golf Course Find A Restaurant $100 Hamburger



FBO's on the Field
FBO Company Facility Photos Services Transportation Aviation Fuel Prices: Prices include tax
Catering Weather Repair Courtesy Rental Type 100LL JetA JetA+ MOGAS 8087
 
Avflight Akron-Canton

This FBO has not yet been rated
FS:Avfuel
Last Updated: Mar-03
Login to update fuel prices
SS:
Contact Avflight Akron-CantonMore FBO Information
 
McKinley Air, Inc.

Currently rated 4 by 5 people
FS:Phillips 66
Last Updated: Mar-13
Login to update fuel prices
SS:
Contact McKinley Air, Inc.More FBO Information
 
Add another FBO Facility Photos Catering Weather Repair Courtesy Rental Type 100LL JetA JetA+ MOGAS 8087
Services Transportation Aviation Fuel Prices: Prices include tax


model-print
model-print
model-print
model-print